createdAt,value
2023-07-27T00:00:23.014Z,21.853333
2023-07-27T00:05:23.144Z,21.700000
2023-07-27T00:10:23.036Z,21.657143
2023-07-27T00:15:47.085Z,21.563158
2023-07-27T00:20:22.969Z,21.468421
2023-07-27T00:25:23.369Z,21.360000
2023-07-27T00:30:23.040Z,21.190476
2023-07-27T00:35:23.003Z,21.080952
2023-07-27T00:40:23.014Z,20.990000
2023-07-27T00:45:35.132Z,21.060000
2023-07-27T00:50:23.107Z,21.252174
2023-07-27T00:55:23.060Z,21.109524
2023-07-27T01:00:23.108Z,20.972727
2023-07-27T01:05:23.128Z,20.839130
2023-07-27T01:10:22.889Z,20.766667
2023-07-27T01:15:23.662Z,20.857143
2023-07-27T01:20:23.018Z,20.800000
2023-07-27T01:25:23.078Z,20.731250
2023-07-27T01:30:23.050Z,20.662500
2023-07-27T01:35:23.092Z,20.795652
2023-07-27T01:40:22.895Z,21.045455
2023-07-27T01:45:23.006Z,21.095455
2023-07-27T01:50:22.948Z,20.994118
2023-07-27T01:55:23.194Z,20.908333
2023-07-27T02:00:23.016Z,20.852381
2023-07-27T02:05:22.911Z,20.786957
2023-07-27T02:10:23.011Z,20.672222
2023-07-27T02:15:22.950Z,20.457143
2023-07-27T02:20:23.041Z,20.227778
2023-07-27T02:25:22.982Z,20.036364
2023-07-27T02:30:23.020Z,20.012500
2023-07-27T02:35:23.120Z,19.956250
2023-07-27T02:40:22.947Z,19.904762
2023-07-27T02:45:23.054Z,19.863636
2023-07-27T02:50:23.088Z,19.895652
2023-07-27T02:55:23.113Z,19.875000
2023-07-27T03:00:23.091Z,19.859091
2023-07-27T03:05:22.942Z,19.805263
2023-07-27T03:10:23.021Z,19.860000
2023-07-27T03:15:23.045Z,19.886957
2023-07-27T03:20:23.087Z,19.904348
2023-07-27T03:25:23.413Z,19.836842
2023-07-27T03:30:22.978Z,19.864706
2023-07-27T03:35:22.973Z,19.909091
2023-07-27T03:40:22.960Z,19.927778
2023-07-27T03:45:23.750Z,19.919048
2023-07-27T03:50:34.972Z,19.929412
2023-07-27T03:55:22.969Z,19.865000
2023-07-27T04:00:35.096Z,19.869565
2023-07-27T04:05:22.945Z,19.845000
2023-07-27T04:10:23.042Z,19.877273
2023-07-27T04:15:35.693Z,19.921053
2023-07-27T04:20:22.951Z,19.933333
2023-07-27T04:25:22.991Z,20.004545
2023-07-27T04:30:22.982Z,20.042105
2023-07-27T04:35:22.968Z,20.073684
2023-07-27T04:40:23.064Z,20.106667
2023-07-27T04:45:22.998Z,19.987500
2023-07-27T04:50:23.031Z,19.673684
2023-07-27T04:55:22.910Z,19.600000
2023-07-27T05:00:22.964Z,19.594737
2023-07-27T05:05:22.971Z,19.666667
2023-07-27T05:10:23.045Z,19.636842
2023-07-27T05:15:22.933Z,19.565217
2023-07-27T05:20:23.082Z,19.436000
2023-07-27T05:25:23.010Z,19.290000
2023-07-27T05:30:22.998Z,19.331579
2023-07-27T05:35:22.961Z,19.442857
2023-07-27T05:40:22.973Z,19.500000
2023-07-27T05:45:22.964Z,19.313636
2023-07-27T05:50:22.878Z,19.173684
2023-07-27T05:55:34.943Z,19.027273
2023-07-27T06:00:22.863Z,18.964706
2023-07-27T06:05:22.994Z,18.926316
2023-07-27T06:10:22.970Z,18.570588
2023-07-27T06:15:23.069Z,18.014286
2023-07-27T06:20:23.030Z,17.876190
2023-07-27T06:25:22.840Z,17.805000
2023-07-27T06:30:22.896Z,17.838095
2023-07-27T06:35:22.979Z,17.594444
2023-07-27T06:40:34.840Z,17.642105
2023-07-27T06:45:23.069Z,17.410000
2023-07-27T06:50:22.913Z,17.205000
2023-07-27T06:55:22.896Z,17.122727
2023-07-27T07:00:22.998Z,17.281818
2023-07-27T07:05:23.000Z,17.350000
2023-07-27T07:10:22.906Z,17.433333
2023-07-27T07:15:23.024Z,17.623810
2023-07-27T07:20:23.562Z,17.809524
2023-07-27T07:25:23.036Z,18.004545
2023-07-27T07:30:22.986Z,18.038095
2023-07-27T07:35:22.922Z,17.828571
2023-07-27T07:40:23.019Z,17.742105
2023-07-27T07:45:22.860Z,18.087500
2023-07-27T07:50:34.965Z,18.238889
2023-07-27T07:55:22.946Z,18.378947
2023-07-27T08:00:34.959Z,18.276190
2023-07-27T08:05:22.986Z,17.933333
2023-07-27T08:10:22.950Z,17.943478
2023-07-27T08:15:22.953Z,17.763158
2023-07-27T08:20:22.957Z,17.395455
2023-07-27T08:25:22.944Z,16.690000
2023-07-27T08:30:23.040Z,16.472727
2023-07-27T08:35:22.948Z,16.428571
2023-07-27T08:40:22.857Z,16.326316
2023-07-27T08:45:34.944Z,16.527273
2023-07-27T08:50:35.081Z,16.683333
2023-07-27T08:55:34.963Z,16.880000
2023-07-27T09:00:35.002Z,17.033333
2023-07-27T09:05:35.627Z,17.013333
2023-07-27T09:10:34.956Z,17.127778
2023-07-27T09:15:22.984Z,17.323529
2023-07-27T09:20:46.964Z,17.319048
2023-07-27T09:25:22.923Z,17.259091
2023-07-27T09:30:22.977Z,17.222727
2023-07-27T09:35:34.886Z,17.191304
2023-07-27T09:40:34.930Z,16.540909
2023-07-27T09:45:22.944Z,16.452174
2023-07-27T09:50:22.986Z,16.431818
2023-07-27T09:55:34.934Z,16.425000
2023-07-27T10:00:22.979Z,16.365000
2023-07-27T10:05:22.887Z,16.400000
2023-07-27T10:10:22.917Z,16.357143
2023-07-27T10:15:22.928Z,16.286957
2023-07-27T10:20:35.670Z,16.172000
2023-07-27T10:25:34.996Z,16.119048
2023-07-27T10:30:22.951Z,16.142105
2023-07-27T10:35:22.826Z,16.126316
2023-07-27T10:40:22.813Z,16.160870
2023-07-27T10:45:23.107Z,16.347619
2023-07-27T10:50:22.962Z,16.547826
2023-07-27T10:55:34.888Z,16.600000
2023-07-27T11:00:22.896Z,16.834783
2023-07-27T11:05:23.001Z,16.952174
2023-07-27T11:10:23.595Z,17.095455
2023-07-27T11:15:22.899Z,17.295000
2023-07-27T11:20:22.931Z,17.175000
2023-07-27T11:25:34.961Z,17.027273
2023-07-27T11:30:23.714Z,16.878261
2023-07-27T11:35:23.072Z,16.710526
2023-07-27T11:40:22.841Z,16.700000
2023-07-27T11:45:22.873Z,16.666667
2023-07-27T11:50:22.930Z,16.852381
2023-07-27T11:55:23.149Z,17.117647
2023-07-27T12:00:23.654Z,17.171429
2023-07-27T12:05:22.826Z,17.285714
2023-07-27T12:10:31.417Z,17.365217
2023-07-27T12:15:22.939Z,17.486957
2023-07-27T12:20:55.085Z,17.530000
2023-07-27T12:25:40.068Z,17.573684
2023-07-27T12:30:22.816Z,17.595000
2023-07-27T12:35:26.201Z,17.610000
2023-07-27T12:40:55.643Z,17.780952
2023-07-27T12:45:22.900Z,17.895000
2023-07-27T12:50:23.649Z,18.060870
2023-07-27T12:55:22.850Z,18.245000
2023-07-27T13:00:22.848Z,18.395238
2023-07-27T13:05:22.842Z,18.581818
2023-07-27T13:10:34.987Z,18.552381
2023-07-27T13:15:22.871Z,18.411111
2023-07-27T13:20:23.011Z,18.404762
2023-07-27T13:25:23.464Z,18.300000
2023-07-27T13:30:22.869Z,18.161905
2023-07-27T13:35:22.908Z,18.136364
2023-07-27T13:40:22.844Z,17.810000
2023-07-27T13:45:23.105Z,17.721739
2023-07-27T13:50:22.885Z,17.747368
2023-07-27T13:55:22.868Z,17.728571
2023-07-27T14:00:22.933Z,17.671429
2023-07-27T14:05:22.912Z,17.694444
2023-07-27T14:10:22.886Z,17.689474
2023-07-27T14:15:23.786Z,17.561111
2023-07-27T14:20:22.815Z,17.481818
2023-07-27T14:25:22.777Z,17.388235
2023-07-27T14:30:22.882Z,17.382609
2023-07-27T14:35:25.886Z,17.388889
2023-07-27T14:40:39.578Z,17.405263
2023-07-27T14:45:22.952Z,17.375000
2023-07-27T14:50:39.270Z,17.330435
2023-07-27T14:55:22.826Z,17.191304
2023-07-27T15:00:23.771Z,17.110526
2023-07-27T15:05:27.411Z,16.928571
2023-07-27T15:10:31.168Z,16.915000
2023-07-27T15:15:22.842Z,16.895833
2023-07-27T15:20:22.770Z,16.847619
2023-07-27T15:25:22.867Z,16.755000
2023-07-27T15:30:22.849Z,16.554545
2023-07-27T15:35:22.921Z,16.560000
2023-07-27T15:40:23.034Z,16.445455
2023-07-27T15:45:22.733Z,16.395455
2023-07-27T15:50:22.851Z,16.347368
2023-07-27T15:55:22.795Z,16.363636
2023-07-27T16:00:22.843Z,16.347059
2023-07-27T16:05:22.888Z,16.341667
2023-07-27T16:10:34.880Z,16.295238
2023-07-27T16:15:22.839Z,16.245000
2023-07-27T16:20:22.869Z,16.200000
2023-07-27T16:25:22.910Z,16.134783
2023-07-27T16:30:23.563Z,16.120000
2023-07-27T16:35:22.835Z,16.126316
2023-07-27T16:40:22.886Z,16.119048
2023-07-27T16:45:22.776Z,16.145455
2023-07-27T16:50:35.032Z,16.261111
2023-07-27T16:55:22.769Z,16.320000
2023-07-27T17:00:22.822Z,16.295455
2023-07-27T17:05:22.831Z,16.214286
2023-07-27T17:10:22.913Z,16.181818
2023-07-27T17:15:22.757Z,16.161111
2023-07-27T17:20:22.824Z,16.169565
2023-07-27T17:25:22.821Z,16.100000
2023-07-27T17:30:22.952Z,16.100000
2023-07-27T17:35:34.801Z,16.036364
2023-07-27T17:40:22.973Z,15.940909
2023-07-27T17:45:22.821Z,15.891304
2023-07-27T17:50:22.836Z,15.842857
2023-07-27T17:55:23.334Z,15.809091
2023-07-27T18:00:22.839Z,15.738095
2023-07-27T18:05:22.956Z,15.640000
2023-07-27T18:10:22.763Z,15.589474
2023-07-27T18:15:34.795Z,15.552381
2023-07-27T18:20:34.906Z,15.538095
2023-07-27T18:25:22.800Z,15.455556
2023-07-27T18:30:24.372Z,15.415789
2023-07-27T18:35:22.916Z,15.277778
2023-07-27T18:40:22.779Z,15.200000
2023-07-27T18:45:22.780Z,15.228571
2023-07-27T18:50:49.587Z,15.286364
2023-07-27T18:55:22.769Z,15.326087
2023-07-27T19:00:22.969Z,15.195238
2023-07-27T19:05:23.061Z,15.104348
2023-07-27T19:10:22.855Z,15.017391
2023-07-27T19:15:22.800Z,14.926087
2023-07-27T19:20:22.780Z,14.908696
2023-07-27T19:25:22.901Z,14.878947
2023-07-27T19:30:22.933Z,14.842857
2023-07-27T19:35:23.429Z,14.814286
2023-07-27T19:40:22.799Z,14.818182
2023-07-27T19:45:22.852Z,14.790476
2023-07-27T19:50:22.809Z,14.804348
2023-07-27T19:55:34.919Z,14.763636
2023-07-27T20:00:22.821Z,14.810526
2023-07-27T20:05:22.727Z,14.809524
2023-07-27T20:10:22.766Z,14.825000
2023-07-27T20:15:22.776Z,14.945455
2023-07-27T20:20:22.940Z,15.019048
2023-07-27T20:25:22.849Z,15.027778
2023-07-27T20:30:22.839Z,14.960870
2023-07-27T20:35:22.762Z,14.990476
2023-07-27T20:40:22.840Z,15.005556
2023-07-27T20:45:34.841Z,15.050000
2023-07-27T20:50:22.735Z,15.030000
2023-07-27T20:55:22.879Z,14.971429
2023-07-27T21:00:23.047Z,15.000000
2023-07-27T21:05:22.773Z,14.925000
2023-07-27T21:10:22.763Z,14.890476
2023-07-27T21:15:22.809Z,14.927273
2023-07-27T21:20:22.776Z,15.052381
2023-07-27T21:25:34.818Z,15.115789
2023-07-27T21:30:22.726Z,15.200000
2023-07-27T21:35:22.780Z,15.252174
2023-07-27T21:40:22.771Z,15.339130
2023-07-27T21:45:22.777Z,15.428571
2023-07-27T21:50:22.929Z,15.482609
2023-07-27T21:55:23.057Z,15.531818
2023-07-27T22:00:22.671Z,15.568421
2023-07-27T22:05:23.463Z,15.566667
2023-07-27T22:10:22.815Z,15.666667
2023-07-27T22:15:22.798Z,15.655000
2023-07-27T22:20:34.894Z,15.569565
2023-07-27T22:25:22.780Z,15.442857
2023-07-27T22:30:22.735Z,15.347619
2023-07-27T22:35:22.758Z,15.340000
2023-07-27T22:40:23.487Z,15.323529
2023-07-27T22:45:22.857Z,15.255000
2023-07-27T22:50:46.751Z,15.228000
2023-07-27T22:55:22.797Z,15.204545
2023-07-27T23:00:23.298Z,15.235000
2023-07-27T23:05:22.773Z,15.207692
2023-07-27T23:10:34.987Z,15.175000
2023-07-27T23:15:22.827Z,15.106667
2023-07-27T23:20:22.885Z,15.105556
2023-07-27T23:25:22.861Z,15.152174
2023-07-27T23:30:22.731Z,15.105000
2023-07-27T23:35:22.704Z,14.933333
2023-07-27T23:40:22.820Z,14.913636
2023-07-27T23:45:22.848Z,14.957143
2023-07-27T23:50:22.790Z,14.840000
2023-07-27T23:55:34.791Z,14.795455
